Time;durP1;ratioP1;P1;durP2;ratioP2;P2;SDS_P1;SDS_P2;PMS_P1;PMS_P2;Temp;Humidity;BMP_temperature;BMP_pressure;BME280_temperature;BME280_humidity;BME280_pressure;Samples;Min_cycle;Max_cycle;Signal;HPM_P1;HPM_P2
2022/03/16 00:02:20;;;;;;;17.30;11.13;;;;;;;5.85;65.50;101638.63;4986539;28;20034;-23
2022/03/16 00:04:54;;;;;;;16.17;10.55;;;;;;;5.82;65.20;101643.78;4990358;28;20026;-23
2022/03/16 00:07:20;;;;;;;14.88;10.27;;;;;;;5.79;65.55;101643.69;4990873;28;20044;-22
2022/03/16 00:09:46;;;;;;;15.32;10.35;;;;;;;5.75;65.81;101640.13;4990418;28;20110;-23
2022/03/16 00:12:12;;;;;;;15.18;10.93;;;;;;;5.72;65.91;101640.03;4990524;28;20042;-21
2022/03/16 00:14:38;;;;;;;15.20;10.55;;;;;;;5.70;65.96;101646.06;4989869;28;20142;-23
2022/03/16 00:17:04;;;;;;;16.63;11.23;;;;;;;5.68;66.16;101643.41;4988465;28;20025;-22
2022/03/16 00:19:30;;;;;;;15.73;10.95;;;;;;;5.63;65.68;101643.28;4988752;28;20062;-23
2022/03/16 00:21:56;;;;;;;15.23;11.73;;;;;;;5.61;66.02;101647.56;4989778;28;20486;-23
2022/03/16 00:24:22;;;;;;;16.55;11.50;;;;;;;5.59;65.69;101654.53;4989104;28;20105;-23
2022/03/16 00:26:47;;;;;;;15.52;10.60;;;;;;;5.56;66.08;101643.06;4988673;28;20184;-21
2022/03/16 00:29:12;;;;;;;18.88;12.23;;;;;;;5.53;66.27;101649.09;4987848;28;20038;-23
2022/03/16 00:31:38;;;;;;;17.15;11.55;;;;;;;5.49;65.68;101653.38;4988706;28;20022;-23
2022/03/16 00:34:03;;;;;;;20.20;11.75;;;;;;;5.47;66.20;101660.28;4990666;28;20501;-23
2022/03/16 00:36:28;;;;;;;19.58;12.50;;;;;;;5.44;65.69;101657.56;5002080;28;20041;-23
2022/03/16 00:38:54;;;;;;;16.73;11.45;;;;;;;5.41;65.63;101660.13;4988677;28;20026;-22
2022/03/16 00:41:20;;;;;;;19.73;12.35;;;;;;;5.38;65.56;101654.81;4990135;28;20497;-23
2022/03/16 00:43:45;;;;;;;19.02;12.48;;;;;;;5.35;65.97;101657.34;4972456;28;20049;-22
2022/03/16 00:46:11;;;;;;;18.75;12.43;;;;;;;5.32;66.11;101665.97;4988678;28;20027;-22
2022/03/16 00:48:36;;;;;;;19.05;12.68;;;;;;;5.29;65.48;101668.50;4986969;28;20034;-23
2022/03/16 00:51:02;;;;;;;20.20;12.88;;;;;;;5.26;65.92;101671.94;4986624;28;20175;-23
2022/03/16 00:53:27;;;;;;;22.15;13.43;;;;;;;5.24;66.18;101678.81;4988028;28;20784;-23
2022/03/16 00:55:52;;;;;;;19.35;12.93;;;;;;;5.20;66.57;101682.19;4989934;28;20106;-20
2022/03/16 00:58:18;;;;;;;22.10;13.68;;;;;;;5.16;66.39;101680.34;4986255;28;20033;-23
2022/03/16 01:00:43;;;;;;;19.58;13.68;;;;;;;5.14;66.36;101689.88;4986342;28;20038;-23
2022/03/16 01:03:09;;;;;;;20.40;12.93;;;;;;;5.11;66.35;101687.16;4986219;28;20034;-23
2022/03/16 01:05:34;;;;;;;21.77;14.20;;;;;;;5.08;66.43;101687.06;4988396;28;20061;-23
2022/03/16 01:07:59;;;;;;;20.65;13.93;;;;;;;5.06;66.07;101691.34;4989523;28;20117;-23
2022/03/16 01:10:25;;;;;;;21.00;13.85;;;;;;;5.01;66.25;101692.09;4986715;28;20033;-23
2022/03/16 01:12:50;;;;;;;22.13;14.15;;;;;;;4.99;66.14;101692.91;4987940;28;20054;-23
2022/03/16 01:15:15;;;;;;;21.70;14.70;;;;;;;4.95;66.44;101697.16;4988562;28;20503;-22
2022/03/16 01:17:41;;;;;;;24.75;14.55;;;;;;;4.91;66.47;101692.69;4992071;28;20611;-23
2022/03/16 01:20:07;;;;;;;21.88;13.85;;;;;;;4.88;66.62;101703.03;4989841;28;20484;-23
2022/03/16 01:22:32;;;;;;;24.70;15.15;;;;;;;4.86;66.67;101707.31;4992795;28;20028;-23
2022/03/16 01:24:58;;;;;;;22.02;14.55;;;;;;;4.83;66.39;101702.88;4992240;28;20444;-22
2022/03/16 01:27:23;;;;;;;22.33;15.13;;;;;;;4.80;66.48;101718.47;4988772;28;20042;-21
2022/03/16 01:29:48;;;;;;;22.52;14.15;;;;;;;4.79;67.18;101718.41;4991671;28;20490;-23
2022/03/16 01:32:14;;;;;;;23.35;15.02;;;;;;;4.75;66.80;101720.06;4988830;28;20055;-22
2022/03/16 01:34:39;;;;;;;22.20;14.30;;;;;;;4.72;67.04;101715.63;4988002;28;20038;-23
2022/03/16 01:37:05;;;;;;;28.33;15.93;;;;;;;4.69;66.84;101719.84;4990263;28;20024;-23
2022/03/16 01:39:31;;;;;;;25.73;16.92;;;;;;;4.66;66.77;101718.03;4987354;28;20105;-22
2022/03/16 01:41:56;;;;;;;24.98;14.25;;;;;;;4.66;66.84;101722.38;4985383;28;20216;-22
2022/03/16 01:45:01;;;;;;;22.08;15.57;;;;;;;4.63;67.06;101717.94;4985364;28;20026;-24
2022/03/16 01:47:26;;;;;;;22.70;15.60;;;;;;;4.62;66.87;101721.38;4944082;28;20490;-23
2022/03/16 01:49:55;;;;;;;24.50;15.05;;;;;;;4.59;67.39;101721.28;4948873;28;20027;-22
2022/03/16 01:52:26;;;;;;;24.58;16.17;;;;;;;4.59;67.43;101731.75;4967103;28;20030;-24
2022/03/16 01:54:53;;;;;;;23.80;16.83;;;;;;;4.57;67.36;101730.81;4989024;28;20022;-23
2022/03/16 01:57:19;;;;;;;27.80;16.52;;;;;;;4.55;67.77;101728.16;4989209;28;20034;-22
2022/03/16 01:59:45;;;;;;;29.42;17.17;;;;;;;4.53;67.78;101735.03;4987389;28;20037;-23
2022/03/16 02:02:12;;;;;;;25.60;16.17;;;;;;;4.52;67.81;101737.59;4996365;28;20083;-24
2022/03/16 02:04:37;;;;;;;26.88;17.42;;;;;;;4.49;67.44;101739.28;4997416;28;20111;-22
2022/03/16 02:07:04;;;;;;;26.63;17.85;;;;;;;4.49;67.69;101739.28;5002274;28;20484;-23
2022/03/16 02:09:29;;;;;;;26.83;16.95;;;;;;;4.47;67.90;101743.56;4995949;28;20033;-23
2022/03/16 02:11:55;;;;;;;27.00;17.08;;;;;;;4.46;68.19;101752.25;4992787;28;20120;-24
2022/03/16 02:14:20;;;;;;;26.42;16.88;;;;;;;4.45;67.73;101755.69;4987793;28;20052;-23
2022/03/16 02:16:46;;;;;;;27.58;16.92;;;;;;;4.43;67.79;101752.13;4989344;28;20025;-23
2022/03/16 02:19:12;;;;;;;28.85;17.08;;;;;;;4.43;67.88;101756.50;4989352;28;20027;-23
2022/03/16 02:21:39;;;;;;;26.02;16.63;;;;;;;4.41;67.96;101751.22;4963779;28;20029;-23
2022/03/16 02:24:05;;;;;;;26.83;17.25;;;;;;;4.40;67.61;101754.63;4990031;28;20037;-23
2022/03/16 02:26:31;;;;;;;27.67;18.10;;;;;;;4.39;67.62;101768.53;4988697;28;20086;-23
2022/03/16 02:28:57;;;;;;;27.05;17.77;;;;;;;4.38;68.04;101756.31;4988625;28;20116;-22
2022/03/16 02:31:23;;;;;;;26.63;17.45;;;;;;;4.36;67.51;101768.44;4985916;28;20449;-22
2022/03/16 02:33:49;;;;;;;30.15;18.25;;;;;;;4.35;67.67;101771.88;4987850;28;20030;-22
2022/03/16 02:36:14;;;;;;;25.95;17.20;;;;;;;4.33;67.38;101773.53;4989988;28;20411;-23
2022/03/16 02:38:39;;;;;;;28.73;18.23;;;;;;;4.33;67.90;101778.78;4989766;28;20404;-23
2022/03/16 02:41:05;;;;;;;27.10;17.13;;;;;;;4.32;67.67;101784.84;4990954;28;20068;-22
2022/03/16 02:43:30;;;;;;;25.55;17.25;;;;;;;4.31;67.88;101786.59;4995492;28;20040;-23
2022/03/16 02:45:56;;;;;;;26.83;16.50;;;;;;;4.30;67.89;101789.13;4990919;28;20038;-23
2022/03/16 02:48:21;;;;;;;32.53;17.80;;;;;;;4.28;68.31;101790.78;4990869;28;20041;-22
2022/03/16 02:50:48;;;;;;;27.40;16.98;;;;;;;4.27;67.86;101789.03;4993259;28;20026;-23
2022/03/16 02:53:15;;;;;;;26.70;16.33;;;;;;;4.26;68.16;101797.69;4988933;28;20035;-22
2022/03/16 02:55:40;;;;;;;25.77;17.08;;;;;;;4.24;68.03;101801.13;4987949;28;20393;-23
2022/03/16 02:58:07;;;;;;;28.67;17.63;;;;;;;4.24;68.40;101803.75;4993442;28;20030;-22
2022/03/16 03:00:33;;;;;;;29.48;18.25;;;;;;;4.23;68.10;101803.69;4988870;28;20072;-23
2022/03/16 03:02:58;;;;;;;28.92;18.15;;;;;;;4.22;68.28;101808.03;4992179;28;20528;-23
2022/03/16 03:05:24;;;;;;;29.08;17.02;;;;;;;4.22;67.86;101810.66;4990938;28;20045;-22
2022/03/16 03:07:49;;;;;;;28.75;17.25;;;;;;;4.22;68.11;101812.34;4990094;28;20655;-23
2022/03/16 03:10:14;;;;;;;29.15;18.42;;;;;;;4.21;68.20;101815.81;4991291;28;20050;-23
2022/03/16 03:12:40;;;;;;;27.60;17.10;;;;;;;4.20;68.26;101820.13;4991879;28;20033;-23
2022/03/16 03:15:09;;;;;;;25.10;16.17;;;;;;;4.19;68.01;101823.59;4987825;28;20026;-23
2022/03/16 03:17:35;;;;;;;26.50;17.70;;;;;;;4.19;67.83;101818.38;4991618;28;20072;-21
2022/03/16 03:20:01;;;;;;;28.83;17.80;;;;;;;4.18;67.90;101821.81;4992205;28;20022;-23
2022/03/16 03:22:27;;;;;;;24.80;17.48;;;;;;;4.17;67.96;101820.03;4990867;28;20026;-23
2022/03/16 03:24:53;;;;;;;25.63;17.58;;;;;;;4.16;68.21;101826.09;4988567;28;20026;-22
2022/03/16 03:27:18;;;;;;;29.33;17.10;;;;;;;4.17;68.35;101829.59;4994930;28;20037;-23
2022/03/16 03:29:44;;;;;;;28.42;18.38;;;;;;;4.15;68.06;101829.53;4992981;28;20034;-23
2022/03/16 03:32:09;;;;;;;22.63;16.02;;;;;;;4.15;68.29;101826.94;4992660;28;20049;-23
2022/03/16 03:34:34;;;;;;;28.90;18.63;;;;;;;4.15;68.44;101826.94;4993868;28;20045;-22
2022/03/16 03:37:00;;;;;;;26.55;17.25;;;;;;;4.14;68.14;101830.38;4994762;28;20030;-22
2022/03/16 03:39:25;;;;;;;26.48;16.75;;;;;;;4.13;68.31;101831.19;4991442;28;20018;-23
2022/03/16 03:41:50;;;;;;;25.42;16.58;;;;;;;4.12;68.53;101829.41;4991681;28;20122;-24
2022/03/16 03:44:16;;;;;;;27.20;18.58;;;;;;;4.11;68.47;101835.50;4991084;28;20499;-23
2022/03/16 03:46:41;;;;;;;29.88;18.35;;;;;;;4.11;68.66;101830.25;4989635;28;20471;-23
2022/03/16 03:49:06;;;;;;;26.23;17.17;;;;;;;4.11;68.83;101835.50;4991149;28;20041;-23
2022/03/16 03:51:32;;;;;;;26.67;17.83;;;;;;;4.09;68.34;101831.91;4989832;28;20026;-22
2022/03/16 03:53:57;;;;;;;28.63;18.25;;;;;;;4.09;68.69;101826.69;4992236;28;20109;-23
2022/03/16 03:56:22;;;;;;;25.17;17.70;;;;;;;4.08;68.99;101831.06;4984383;28;20404;-20
2022/03/16 03:58:48;;;;;;;31.13;19.23;;;;;;;4.07;69.19;101824.03;4991134;28;20030;-23
2022/03/16 04:01:15;;;;;;;26.80;18.50;;;;;;;4.08;68.90;101830.16;4996034;28;20491;-23
2022/03/16 04:03:42;;;;;;;25.95;18.08;;;;;;;4.07;69.51;101831.00;4988421;28;20026;-23
2022/03/16 04:06:08;;;;;;;30.73;19.17;;;;;;;4.07;69.12;101836.22;4991447;28;20036;-22
2022/03/16 04:08:34;;;;;;;29.88;18.77;;;;;;;4.06;69.24;101839.63;4988929;28;20029;-23
2022/03/16 04:10:59;;;;;;;29.50;18.70;;;;;;;4.06;69.41;101834.41;4992524;28;20393;-22
2022/03/16 04:13:25;;;;;;;31.73;19.95;;;;;;;4.05;69.12;101843.09;4988655;28;20048;-23
2022/03/16 04:15:50;;;;;;;28.98;18.00;;;;;;;4.04;69.07;101842.19;4991619;28;20038;-21
2022/03/16 04:18:15;;;;;;;28.08;17.48;;;;;;;4.05;69.04;101843.09;4989702;28;20062;-23
2022/03/16 04:20:41;;;;;;;26.05;17.35;;;;;;;4.03;69.09;101844.78;4991426;28;20027;-23
2022/03/16 04:23:06;;;;;;;28.67;16.35;;;;;;;4.02;69.10;101840.34;4994350;28;20480;-20
2022/03/16 04:25:32;;;;;;;24.52;16.27;;;;;;;4.01;69.10;101843.81;4987862;28;20124;-23
2022/03/16 04:27:57;;;;;;;28.98;17.70;;;;;;;4.01;68.88;101852.53;4992618;28;20030;-23
2022/03/16 04:30:22;;;;;;;28.63;17.23;;;;;;;4.00;69.04;101847.25;4989789;28;20034;-23
2022/03/16 04:32:52;;;;;;;26.10;17.30;;;;;;;3.98;69.30;101848.06;4988103;28;20085;-23
2022/03/16 04:35:19;;;;;;;24.95;17.27;;;;;;;3.99;68.73;101843.75;4993627;28;20614;-23
2022/03/16 04:37:44;;;;;;;27.38;16.67;;;;;;;3.97;69.32;101848.03;4991283;28;20034;-23
2022/03/16 04:40:10;;;;;;;27.42;16.63;;;;;;;3.96;69.03;101838.41;4988906;28;20044;-22
2022/03/16 04:42:36;;;;;;;29.05;16.95;;;;;;;3.96;69.07;101846.22;4973942;28;20407;-23
2022/03/16 04:45:02;;;;;;;28.42;16.70;;;;;;;3.95;69.01;101840.16;4988161;28;20029;-23
2022/03/16 04:47:27;;;;;;;26.58;16.90;;;;;;;3.93;69.23;101839.19;4990753;28;20030;-22
2022/03/16 04:49:54;;;;;;;26.67;16.33;;;;;;;3.93;69.36;101833.97;4990620;28;20081;-23
2022/03/16 04:52:19;;;;;;;24.95;16.08;;;;;;;3.91;69.10;101837.34;4993576;28;20022;-20
2022/03/16 04:54:45;;;;;;;24.08;15.85;;;;;;;3.92;68.83;101844.34;4989848;28;20120;-23
2022/03/16 04:57:10;;;;;;;23.98;15.82;;;;;;;3.90;68.94;101843.41;4996773;28;20018;-23
2022/03/16 04:59:35;;;;;;;25.80;16.20;;;;;;;3.87;69.32;101841.56;4989504;28;20496;-23
2022/03/16 05:02:01;;;;;;;26.92;16.10;;;;;;;3.89;69.18;101846.84;4989375;28;20416;-23
2022/03/16 05:04:26;;;;;;;26.92;16.38;;;;;;;3.87;69.20;101851.13;4990026;28;20018;-23
2022/03/16 05:06:52;;;;;;;27.30;15.63;;;;;;;3.85;69.28;101864.13;4988309;28;20093;-22
2022/03/16 05:09:17;;;;;;;23.92;15.00;;;;;;;3.84;68.91;101863.22;4993741;28;20072;-23
2022/03/16 05:11:43;;;;;;;24.92;14.95;;;;;;;3.84;68.81;101872.78;4989157;28;21047;-23
2022/03/16 05:14:09;;;;;;;23.95;15.60;;;;;;;3.83;68.78;101873.59;4987963;28;20026;-23
2022/03/16 05:16:35;;;;;;;23.75;14.35;;;;;;;3.82;69.07;101871.81;4991229;28;20638;-23
2022/03/16 05:19:01;;;;;;;22.65;14.93;;;;;;;3.80;68.74;101881.34;4989637;28;20488;-23
2022/03/16 05:21:26;;;;;;;22.70;14.95;;;;;;;3.79;68.67;101884.75;4986664;28;20186;-23
2022/03/16 05:23:51;;;;;;;26.58;16.23;;;;;;;3.77;68.27;101891.66;4991028;28;20030;-22
2022/03/16 05:26:17;;;;;;;27.95;15.10;;;;;;;3.76;68.70;101901.19;4988780;28;20540;-22
2022/03/16 05:28:42;;;;;;;21.58;15.20;;;;;;;3.75;68.80;101908.94;4989491;28;20306;-23
2022/03/16 05:31:08;;;;;;;24.85;15.13;;;;;;;3.73;68.68;101908.88;4986926;28;20417;-23
2022/03/16 05:33:34;;;;;;;26.40;15.50;;;;;;;3.71;69.05;101907.97;4985603;28;20089;-22
2022/03/16 05:35:59;;;;;;;24.25;15.25;;;;;;;3.70;68.47;101912.28;4989314;28;20088;-22
2022/03/16 05:38:24;;;;;;;24.58;14.77;;;;;;;3.68;68.51;101911.34;4990916;28;20018;-23
2022/03/16 05:40:50;;;;;;;23.10;15.20;;;;;;;3.67;68.56;101924.31;4990309;28;20077;-23
2022/03/16 05:43:15;;;;;;;19.85;14.90;;;;;;;3.65;68.40;101924.25;4986448;28;20030;-23
2022/03/16 05:45:41;;;;;;;22.75;14.18;;;;;;;3.64;68.11;101932.03;4988759;28;20041;-23
2022/03/16 05:48:07;;;;;;;20.65;14.95;;;;;;;3.62;68.64;101937.19;4988065;28;20061;-21
2022/03/16 05:50:32;;;;;;;23.23;14.93;;;;;;;3.61;68.65;101938.00;4986739;28;20510;-23
2022/03/16 05:52:59;;;;;;;18.35;13.63;;;;;;;3.57;68.25;101936.97;4986543;28;20451;-23
2022/03/16 05:55:25;;;;;;;23.63;14.70;;;;;;;3.56;68.25;101930.00;4970192;28;20437;-23
2022/03/16 05:57:50;;;;;;;24.42;15.13;;;;;;;3.56;68.15;101939.53;4987540;28;20034;-23
2022/03/16 06:00:17;;;;;;;23.60;14.63;;;;;;;3.53;68.45;101942.03;4990065;28;20089;-23
2022/03/16 06:02:48;;;;;;;23.88;15.27;;;;;;;3.52;68.64;101948.06;4984664;28;20090;-22
2022/03/16 06:05:14;;;;;;;21.97;15.07;;;;;;;3.50;68.57;101944.53;4987161;28;20125;-22
2022/03/16 06:07:40;;;;;;;20.83;15.55;;;;;;;3.49;68.66;101953.16;4988536;28;20351;-23
2022/03/16 06:10:11;;;;;;;22.27;14.70;;;;;;;3.47;68.18;101953.13;4986556;28;20026;-23
2022/03/16 06:12:56;;;;;;;27.17;15.33;;;;;;;3.47;68.87;101960.94;4988587;28;20443;-23
2022/03/16 06:15:22;;;;;;;22.58;13.70;;;;;;;3.45;68.49;101963.50;4994612;28;20311;-23
2022/03/16 06:17:48;;;;;;;20.23;14.77;;;;;;;3.44;68.04;101958.19;4994876;28;20057;-23
2022/03/16 06:20:13;;;;;;;24.48;15.13;;;;;;;3.42;68.46;101958.13;4993917;28;20030;-22
2022/03/16 06:22:39;;;;;;;23.77;15.93;;;;;;;3.41;68.59;101956.38;4991830;28;20039;-22
2022/03/16 06:25:04;;;;;;;21.27;15.02;;;;;;;3.42;68.90;101958.13;4989888;28;20022;-22
2022/03/16 06:27:30;;;;;;;23.92;15.88;;;;;;;3.40;69.04;101959.78;4991408;28;20117;-23
2022/03/16 06:29:55;;;;;;;24.77;16.15;;;;;;;3.39;68.95;101958.00;4990849;28;20117;-21
2022/03/16 06:32:22;;;;;;;27.00;16.08;;;;;;;3.39;69.15;101960.63;4988012;28;20114;-22
2022/03/16 06:34:47;;;;;;;23.42;15.90;;;;;;;3.38;69.21;101966.66;4989242;28;20909;-22
2022/03/16 06:37:13;;;;;;;23.90;15.50;;;;;;;3.38;68.97;101961.44;4996474;28;20032;-22
2022/03/16 06:39:38;;;;;;;23.98;15.90;;;;;;;3.38;68.73;101961.44;4992387;28;20026;-21
2022/03/16 06:42:04;;;;;;;21.10;14.98;;;;;;;3.38;68.71;101961.44;4990287;28;20100;-21
2022/03/16 06:44:30;;;;;;;22.55;14.55;;;;;;;3.38;68.70;101970.97;4992456;28;20117;-22
2022/03/16 06:46:55;;;;;;;19.95;14.77;;;;;;;3.38;69.25;101966.66;4990759;28;20058;-23
2022/03/16 06:49:20;;;;;;;25.35;15.43;;;;;;;3.38;68.97;101960.53;4992857;28;20042;-23
2022/03/16 06:51:46;;;;;;;26.25;15.30;;;;;;;3.38;68.81;101960.53;4992017;28;20480;-23
2022/03/16 06:54:11;;;;;;;24.65;15.55;;;;;;;3.40;68.50;101965.00;4992032;28;20027;-22
2022/03/16 06:56:37;;;;;;;23.73;14.95;;;;;;;3.41;68.54;101961.59;4991196;28;20026;-23
2022/03/16 06:59:02;;;;;;;23.70;16.50;;;;;;;3.42;68.20;101955.53;4989057;28;20365;-20
2022/03/16 07:01:27;;;;;;;21.60;14.80;;;;;;;3.45;68.36;101967.81;4994774;28;20392;-23
2022/03/16 07:03:53;;;;;;;21.23;14.80;;;;;;;3.46;68.41;101970.47;4994399;28;20081;-22
2022/03/16 07:06:18;;;;;;;22.88;15.85;;;;;;;3.46;68.64;101970.47;4992855;28;20030;-23
2022/03/16 07:08:44;;;;;;;22.38;15.00;;;;;;;3.49;68.57;101963.59;4993299;28;20026;-23
2022/03/16 07:11:09;;;;;;;24.70;15.23;;;;;;;3.51;68.93;101973.28;4991782;28;20030;-23
2022/03/16 07:13:34;;;;;;;25.55;16.27;;;;;;;3.53;68.93;101986.38;4993356;28;20026;-24
2022/03/16 07:16:00;;;;;;;28.00;16.88;;;;;;;3.55;69.39;101985.63;4989261;28;20484;-22
2022/03/16 07:18:25;;;;;;;29.83;19.38;;;;;;;3.58;71.13;101990.06;4991427;28;20109;-23
2022/03/16 07:20:51;;;;;;;25.80;16.40;;;;;;;3.60;69.98;101993.63;4993583;28;20388;-23
2022/03/16 07:23:20;;;;;;;26.67;15.82;;;;;;;3.64;70.29;101995.56;4989755;28;20056;-22
2022/03/16 07:25:47;;;;;;;25.05;16.35;;;;;;;3.67;70.37;101995.66;4992596;28;20029;-22
2022/03/16 07:28:13;;;;;;;27.38;16.90;;;;;;;3.71;70.35;102001.91;4991484;28;20524;-23
2022/03/16 07:30:39;;;;;;;22.10;15.93;;;;;;;3.74;70.26;101996.81;4993676;28;20034;-21
2022/03/16 07:33:06;;;;;;;26.02;15.98;;;;;;;3.77;70.14;101991.69;4993022;28;20035;-23
2022/03/16 07:35:32;;;;;;;27.27;17.42;;;;;;;3.81;69.65;101992.72;4990890;28;20115;-22
2022/03/16 07:37:58;;;;;;;27.35;17.35;;;;;;;3.83;69.40;102001.50;4992643;28;20424;-23
2022/03/16 07:40:24;;;;;;;25.40;16.65;;;;;;;3.87;69.11;101998.16;4991426;28;20030;-23
2022/03/16 07:42:50;;;;;;;24.77;16.15;;;;;;;3.91;69.45;102002.72;4992761;28;20050;-22
2022/03/16 07:45:18;;;;;;;26.33;17.27;;;;;;;3.93;69.31;101993.19;4990232;28;20022;-23
2022/03/16 07:47:47;;;;;;;21.88;16.27;;;;;;;4.00;69.45;102009.13;4990363;28;20030;-23
2022/03/16 07:50:12;;;;;;;26.83;16.55;;;;;;;4.04;69.12;102006.66;4992575;28;20026;-23
2022/03/16 07:52:38;;;;;;;24.13;16.23;;;;;;;4.09;69.52;102006.88;4992987;28;20038;-24
2022/03/16 07:55:04;;;;;;;24.33;16.13;;;;;;;4.15;69.45;102011.44;4992373;28;20072;-22
2022/03/16 07:57:30;;;;;;;24.27;16.95;;;;;;;4.20;69.37;102016.00;4991507;28;20434;-23
2022/03/16 07:59:56;;;;;;;22.58;15.85;;;;;;;4.26;69.82;102011.88;4995412;28;20023;-24
2022/03/16 08:02:22;;;;;;;26.63;15.52;;;;;;;4.32;69.46;102017.31;4989205;28;20050;-23
2022/03/16 08:04:47;;;;;;;25.83;15.73;;;;;;;4.37;69.52;102015.78;4990552;28;20022;-23
2022/03/16 08:07:12;;;;;;;20.80;15.95;;;;;;;4.43;69.65;102021.22;4991745;28;20477;-23
2022/03/16 08:09:38;;;;;;;19.77;15.18;;;;;;;4.51;70.02;102018.91;4991632;28;20026;-22
2022/03/16 08:12:04;;;;;;;27.63;17.50;;;;;;;4.58;69.62;102012.19;4974114;28;20176;-23
2022/03/16 08:14:30;;;;;;;27.27;15.88;;;;;;;4.66;69.69;102025.53;4992439;28;20077;-22
2022/03/16 08:16:55;;;;;;;23.45;16.20;;;;;;;4.73;69.53;102024.91;4990760;28;20030;-22
2022/03/16 08:19:21;;;;;;;21.95;15.98;;;;;;;4.80;69.90;102020.84;4994253;28;20374;-23
2022/03/16 08:21:47;;;;;;;24.63;14.43;;;;;;;4.87;69.35;102015.88;4991657;28;20038;-22
2022/03/16 08:24:13;;;;;;;27.88;15.23;;;;;;;4.95;69.12;102021.38;4993096;28;20031;-23
2022/03/16 08:26:39;;;;;;;21.25;14.85;;;;;;;5.04;69.16;102020.84;4990038;28;20493;-23
2022/03/16 08:29:05;;;;;;;24.27;15.85;;;;;;;5.13;68.76;102030.69;4988898;28;20061;-23
2022/03/16 08:31:30;;;;;;;19.83;13.45;;;;;;;5.21;69.03;102028.38;4992709;28;20109;-23
2022/03/16 08:33:56;;;;;;;24.48;15.05;;;;;;;5.31;69.18;102033.09;4988326;28;20392;-23
2022/03/16 08:36:22;;;;;;;19.63;13.18;;;;;;;5.42;68.72;102038.69;4991484;28;20026;-23
2022/03/16 08:38:47;;;;;;;21.98;15.15;;;;;;;5.48;68.18;102028.44;4992117;28;20202;-23
2022/03/16 08:41:12;;;;;;;21.95;14.40;;;;;;;5.59;68.06;102027.88;4989563;28;20030;-22
2022/03/16 08:43:38;;;;;;;17.77;12.45;;;;;;;5.68;67.83;102033.44;4991778;28;20040;-22
2022/03/16 08:46:04;;;;;;;20.98;14.40;;;;;;;5.77;67.52;102035.50;4992349;28;20092;-23
2022/03/16 08:48:30;;;;;;;24.42;14.48;;;;;;;5.87;68.14;102042.78;4990443;28;20381;-23
2022/03/16 08:50:55;;;;;;;22.52;13.88;;;;;;;5.96;67.82;102042.19;4988056;28;20072;-21
2022/03/16 08:53:21;;;;;;;21.15;13.38;;;;;;;6.07;67.64;102046.94;4990464;28;20116;-24
2022/03/16 08:55:46;;;;;;;17.70;13.10;;;;;;;6.16;67.34;102045.50;4987028;28;20018;-23
2022/03/16 08:58:14;;;;;;;20.27;12.18;;;;;;;6.27;67.02;102047.56;4990269;28;20507;-22
2022/03/16 09:00:41;;;;;;;19.65;13.13;;;;;;;6.39;67.04;102052.28;4995524;28;20553;-23
2022/03/16 09:03:08;;;;;;;20.50;13.52;;;;;;;6.49;67.54;102038.59;4991761;28;20029;-23
2022/03/16 09:05:34;;;;;;;19.92;13.10;;;;;;;6.59;67.20;102042.38;4994010;28;20038;-23
2022/03/16 09:07:59;;;;;;;19.15;13.30;;;;;;;6.70;67.51;102047.94;4988518;28;20034;-23
2022/03/16 09:10:25;;;;;;;20.60;13.52;;;;;;;6.80;67.48;102038.59;4997408;28;20028;-23
2022/03/16 09:12:50;;;;;;;18.98;13.25;;;;;;;6.91;66.58;102037.16;4990194;28;20408;-23
2022/03/16 09:15:15;;;;;;;15.57;12.18;;;;;;;7.02;66.49;102033.97;4992615;28;20124;-23
2022/03/16 09:17:41;;;;;;;20.33;13.00;;;;;;;7.15;66.54;102040.44;4989202;28;20064;-22
2022/03/16 09:20:06;;;;;;;19.77;13.55;;;;;;;7.24;66.77;102035.44;4989645;28;20037;-23
2022/03/16 09:22:32;;;;;;;20.73;12.77;;;;;;;7.35;66.67;102037.47;4990382;28;20420;-23
2022/03/16 09:24:58;;;;;;;18.45;12.18;;;;;;;7.46;66.34;102040.38;4989284;28;20061;-22
2022/03/16 09:27:25;;;;;;;20.52;12.90;;;;;;;7.60;66.88;102038.09;4985894;28;20473;-22
2022/03/16 09:29:50;;;;;;;21.88;13.10;;;;;;;7.70;66.86;102045.34;4990309;28;20903;-23
2022/03/16 09:32:16;;;;;;;16.83;12.65;;;;;;;7.80;66.28;102047.34;4972607;28;20046;-21
2022/03/16 09:34:42;;;;;;;18.23;11.73;;;;;;;7.92;66.55;102046.78;4987165;28;20065;-22
2022/03/16 09:37:09;;;;;;;17.33;11.43;;;;;;;8.05;66.54;102047.06;4972693;28;20026;-22
2022/03/16 09:39:35;;;;;;;17.08;11.82;;;;;;;8.18;66.31;102046.50;4990152;28;20038;-23
2022/03/16 09:42:03;;;;;;;21.33;12.27;;;;;;;8.28;66.29;102050.22;4982801;28;20030;-23
2022/03/16 09:44:30;;;;;;;18.27;12.02;;;;;;;8.40;66.32;102048.72;4986363;28;20034;-23
2022/03/16 09:46:56;;;;;;;18.02;11.80;;;;;;;8.53;66.03;102044.59;4988561;28;20042;-23
2022/03/16 09:49:22;;;;;;;22.20;11.98;;;;;;;8.66;66.13;102041.44;4998943;28;20034;-22
2022/03/16 09:51:49;;;;;;;16.70;10.65;;;;;;;8.79;65.83;102042.56;4987834;28;20104;-23
2022/03/16 09:54:15;;;;;;;16.08;11.35;;;;;;;8.95;65.79;102037.59;4995626;28;20060;-22
2022/03/16 09:56:40;;;;;;;17.50;11.32;;;;;;;9.03;65.47;102038.63;4995687;28;20034;-21
2022/03/16 09:59:05;;;;;;;17.65;10.68;;;;;;;9.16;65.63;102047.66;4974327;28;20497;-23
2022/03/16 10:01:35;;;;;;;17.15;11.13;;;;;;;9.29;65.55;102035.63;4995341;28;20061;-22
2022/03/16 10:04:03;;;;;;;13.35;10.40;;;;;;;9.40;65.74;102029.66;4994931;28;20193;-23
2022/03/16 10:06:29;;;;;;;15.35;11.57;;;;;;;9.50;65.59;102037.75;4993922;28;20113;-23
2022/03/16 10:14:40;;;;;;;17.05;10.07;;;;;;;9.83;65.13;102035.63;4978612;28;20042;-23
2022/03/16 10:19:52;;;;;;;14.45;10.10;;;;;;;10.02;64.76;102043.84;4996294;28;20100;-23
2022/03/16 10:22:25;;;;;;;15.10;10.13;;;;;;;10.11;64.37;102041.31;4995450;28;20042;-23
2022/03/16 10:25:02;;;;;;;14.50;9.50;;;;;;;10.22;64.57;102037.97;4995391;28;20034;-22
2022/03/16 10:27:27;;;;;;;15.75;10.23;;;;;;;10.28;64.21;102038.06;4991660;28;20038;-22
2022/03/16 10:29:54;;;;;;;12.45;8.63;;;;;;;10.35;63.94;102045.19;4994509;28;20101;-22
2022/03/16 10:32:22;;;;;;;12.05;9.23;;;;;;;10.44;64.06;102039.13;4998986;28;20492;-24
2022/03/16 10:34:54;;;;;;;12.27;7.90;;;;;;;10.51;64.10;102035.75;5005508;28;20037;-21
2022/03/16 10:37:20;;;;;;;13.02;8.70;;;;;;;10.62;63.81;102042.94;4998907;28;20025;-23
2022/03/16 10:39:52;;;;;;;11.38;8.95;;;;;;;10.72;63.62;102036.00;4999054;28;20034;-23
2022/03/16 10:47:56;;;;;;;12.90;9.75;;;;;;;10.97;63.87;102039.81;4992887;28;20048;-24
2022/03/16 10:50:22;;;;;;;12.98;9.60;;;;;;;11.08;63.40;102036.41;4993944;28;20343;-23
2022/03/16 10:52:50;;;;;;;11.63;9.10;;;;;;;11.14;63.71;102037.38;4995833;28;20022;-23
2022/03/16 10:55:17;;;;;;;13.40;8.82;;;;;;;11.21;63.30;102033.06;4998393;28;20022;-23
2022/03/16 10:57:43;;;;;;;13.38;8.32;;;;;;;11.28;63.42;102040.13;4993988;28;20022;-23
2022/03/16 11:00:09;;;;;;;14.23;7.70;;;;;;;11.38;63.41;102038.50;4976079;28;20484;-23
2022/03/16 11:02:34;;;;;;;11.18;8.02;;;;;;;11.45;63.25;102031.50;4993956;28;20038;-23
2022/03/16 11:05:00;;;;;;;10.63;7.93;;;;;;;11.54;63.21;102034.22;4992718;28;20034;-23
2022/03/16 11:07:26;;;;;;;13.05;8.25;;;;;;;11.64;63.04;102034.31;4989682;28;20023;-22
2022/03/16 11:09:52;;;;;;;10.60;7.60;;;;;;;11.70;62.95;102023.78;4994963;28;20038;-23
2022/03/16 11:15:05;;;;;;;12.68;7.75;;;;;;;11.87;62.96;102029.19;4993261;28;20151;-22
2022/03/16 11:17:32;;;;;;;12.13;7.75;;;;;;;11.94;63.12;102028.38;4994304;28;20023;-23
2022/03/16 11:19:59;;;;;;;10.63;8.60;;;;;;;12.01;62.93;102025.78;4993535;28;20054;-23
2022/03/16 11:22:29;;;;;;;11.25;7.82;;;;;;;12.10;62.75;102028.50;4995819;28;20500;-23
2022/03/16 11:25:11;;;;;;;9.98;7.50;;;;;;;12.20;62.56;102024.16;4995055;28;20109;-22
2022/03/16 11:27:46;;;;;;;9.95;7.13;;;;;;;12.28;62.62;102026.84;4989238;28;20461;-23
2022/03/16 11:30:25;;;;;;;11.90;7.45;;;;;;;12.35;62.50;102028.66;4996216;28;20040;-23